Time;durP1;ratioP1;P1;durP2;ratioP2;P2;SDS_P1;SDS_P2;PMS_P1;PMS_P2;Temp;Humidity;BMP_temperature;BMP_pressure;BME280_temperature;BME280_humidity;BME280_pressure;Samples;Min_cycle;Max_cycle;Signal;HPM_P1;HPM_P2
2022/01/11 00:00:53;;;;;;;52.38;27.80;;;2.40;99.90;;;;;;4342424;28;10000578;-70
2022/01/11 00:03:19;;;;;;;52.33;26.20;;;2.40;99.90;;;;;;5037574;28;20079;-70
2022/01/11 00:05:53;;;;;;;49.40;26.50;;;2.30;99.90;;;;;;5028410;28;20045;-70
2022/01/11 00:08:28;;;;;;;52.88;28.60;;;2.30;99.90;;;;;;5038316;28;20037;-70
2022/01/11 00:11:02;;;;;;;63.72;30.25;;;2.30;99.90;;;;;;5034037;28;20025;-71
2022/01/11 00:13:28;;;;;;;57.85;29.60;;;2.30;99.90;;;;;;5047955;28;20496;-71
2022/01/11 00:15:54;;;;;;;52.38;27.77;;;2.30;99.90;;;;;;5047382;28;20025;-70
2022/01/11 00:18:19;;;;;;;49.80;27.85;;;2.20;99.90;;;;;;5044408;28;20636;-70
2022/01/11 00:20:45;;;;;;;54.53;27.27;;;2.20;99.90;;;;;;5039594;28;20028;-70
2022/01/11 00:25:40;;;;;;;49.03;25.58;;;2.20;99.90;;;;;;5039950;28;20049;-70
2022/01/11 00:28:07;;;;;;;47.35;26.15;;;2.10;99.90;;;;;;5044394;28;20029;-70
2022/01/11 00:30:36;;;;;;;53.78;29.05;;;2.10;99.90;;;;;;5037379;28;20089;-70
2022/01/11 00:33:05;;;;;;;52.55;27.95;;;2.10;99.90;;;;;;5042374;28;20029;-70
2022/01/11 00:35:45;;;;;;;56.75;28.45;;;2.00;99.90;;;;;;5034292;28;20094;-70
2022/01/11 00:38:18;;;;;;;53.47;27.92;;;2.00;99.90;;;;;;5038711;28;20029;-70
2022/01/11 00:40:49;;;;;;;49.03;27.35;;;2.00;99.90;;;;;;5036020;28;20847;-70
2022/01/11 00:43:20;;;;;;;51.90;27.58;;;2.00;99.90;;;;;;5047615;28;20481;-69
2022/01/11 00:45:47;;;;;;;57.42;29.73;;;2.00;99.90;;;;;;5036362;28;20033;-70
2022/01/11 00:48:13;;;;;;;58.95;29.27;;;2.00;99.90;;;;;;5035517;28;20024;-70
2022/01/11 00:50:39;;;;;;;53.53;28.83;;;1.90;99.90;;;;;;5043392;28;20025;-70
2022/01/11 00:53:06;;;;;;;56.38;27.90;;;1.90;99.90;;;;;;5037362;28;20028;-71
2022/01/11 00:55:33;;;;;;;52.00;27.20;;;1.90;99.90;;;;;;5047105;28;20024;-70
2022/01/11 00:57:59;;;;;;;51.92;27.55;;;1.90;99.90;;;;;;5043563;28;20541;-70
2022/01/11 01:00:25;;;;;;;52.17;27.17;;;1.90;99.90;;;;;;5041076;28;20022;-70
2022/01/11 01:02:50;;;;;;;55.88;29.05;;;1.90;99.90;;;;;;5037144;28;20029;-69
2022/01/11 01:05:17;;;;;;;53.38;28.35;;;1.80;99.90;;;;;;5047645;28;20031;-70
2022/01/11 01:07:46;;;;;;;57.78;30.65;;;1.80;99.90;;;;;;5045350;28;20388;-70
2022/01/11 01:10:46;;;;;;;59.78;29.95;;;1.70;99.90;;;;;;5046830;28;20115;-70
2022/01/11 01:13:13;;;;;;;56.83;28.85;;;1.70;99.90;;;;;;5043649;28;20037;-70
2022/01/11 01:15:38;;;;;;;50.17;27.48;;;1.70;99.90;;;;;;5041764;28;20025;-70
2022/01/11 01:18:05;;;;;;;50.63;27.33;;;1.70;99.90;;;;;;5033563;28;20024;-70
2022/01/11 01:20:31;;;;;;;50.75;27.77;;;1.60;99.90;;;;;;5037974;28;20393;-70
2022/01/11 01:22:56;;;;;;;51.25;26.63;;;1.60;99.90;;;;;;5041931;28;20021;-70
2022/01/11 01:25:23;;;;;;;51.60;27.80;;;1.60;99.90;;;;;;5044048;28;20524;-70
2022/01/11 01:27:51;;;;;;;54.78;29.23;;;1.50;99.90;;;;;;5039119;28;20513;-69
2022/01/11 01:30:17;;;;;;;50.67;27.42;;;1.50;99.90;;;;;;5033525;28;20090;-70
2022/01/11 01:32:44;;;;;;;48.72;28.42;;;1.40;99.90;;;;;;5041686;28;20416;-69
2022/01/11 01:35:11;;;;;;;65.90;31.92;;;1.40;99.90;;;;;;5034422;28;20021;-70
2022/01/11 01:37:37;;;;;;;62.72;32.25;;;1.40;99.90;;;;;;5039649;28;20473;-70
2022/01/11 01:40:04;;;;;;;57.40;29.15;;;1.50;99.90;;;;;;5040225;28;20056;-70
2022/01/11 01:42:31;;;;;;;50.83;28.63;;;1.40;99.90;;;;;;5041142;28;20122;-71
2022/01/11 01:45:01;;;;;;;58.65;31.30;;;1.40;99.90;;;;;;5036451;28;20048;-70
2022/01/11 01:47:26;;;;;;;64.38;32.70;;;1.30;99.90;;;;;;5029848;28;20044;-70
2022/01/11 01:49:52;;;;;;;61.65;30.77;;;1.40;99.90;;;;;;5044049;28;20024;-69
2022/01/11 01:52:18;;;;;;;57.55;29.05;;;1.60;99.90;;;;;;5046541;28;20029;-69
2022/01/11 01:54:45;;;;;;;51.00;27.13;;;1.70;99.90;;;;;;5043088;28;20657;-70
2022/01/11 01:57:10;;;;;;;52.08;27.70;;;1.70;99.90;;;;;;5043581;28;20032;-69
2022/01/11 01:59:37;;;;;;;54.25;26.48;;;1.70;99.90;;;;;;5034338;28;20034;-69
2022/01/11 02:02:04;;;;;;;53.05;28.02;;;1.60;99.90;;;;;;5032681;28;20065;-69
2022/01/11 02:04:29;;;;;;;55.55;27.50;;;1.60;99.90;;;;;;5040485;28;20652;-69
2022/01/11 02:06:55;;;;;;;50.15;26.30;;;1.60;99.90;;;;;;5040279;28;20067;-69
2022/01/11 02:09:20;;;;;;;45.42;26.02;;;1.60;99.90;;;;;;5033920;28;20049;-69
2022/01/11 02:11:47;;;;;;;51.53;25.65;;;1.60;99.90;;;;;;5032251;28;20029;-69
2022/01/11 02:14:13;;;;;;;42.83;24.35;;;1.50;99.90;;;;;;5035977;28;20029;-69
2022/01/11 02:16:39;;;;;;;52.72;26.95;;;1.40;99.90;;;;;;5035622;28;20025;-69
2022/01/11 02:19:06;;;;;;;46.78;26.00;;;1.40;99.90;;;;;;5028483;28;20132;-69
2022/01/11 02:21:32;;;;;;;50.47;27.30;;;1.40;99.90;;;;;;5033545;28;20029;-69
2022/01/11 02:23:59;;;;;;;50.17;26.85;;;1.40;99.90;;;;;;5035257;28;20021;-69
2022/01/11 02:26:25;;;;;;;54.17;25.92;;;1.30;99.90;;;;;;5042701;28;20056;-69
2022/01/11 02:28:52;;;;;;;42.10;24.15;;;1.30;99.90;;;;;;5041027;28;20033;-69
2022/01/11 02:31:18;;;;;;;38.83;23.98;;;1.20;99.90;;;;;;5037251;28;20059;-70
2022/01/11 02:33:54;;;;;;;41.95;23.52;;;1.10;99.90;;;;;;5035052;28;20029;-69
2022/01/11 02:36:26;;;;;;;40.75;23.20;;;1.10;99.90;;;;;;5036585;28;20091;-69
2022/01/11 02:38:53;;;;;;;43.20;24.35;;;1.00;99.90;;;;;;5044082;28;20461;-69
2022/01/11 02:41:20;;;;;;;45.22;24.50;;;1.00;99.90;;;;;;5033471;28;20119;-69
2022/01/11 02:43:47;;;;;;;42.65;23.38;;;1.00;99.90;;;;;;5039002;28;20652;-69
2022/01/11 02:46:15;;;;;;;49.95;26.23;;;0.90;99.90;;;;;;5038664;28;20502;-69
2022/01/11 02:48:41;;;;;;;49.95;26.88;;;1.00;99.90;;;;;;5037696;28;20021;-69
2022/01/11 02:51:07;;;;;;;50.90;26.67;;;0.90;99.90;;;;;;5035348;28;20025;-69
2022/01/11 02:53:40;;;;;;;43.13;25.88;;;0.80;99.90;;;;;;5043240;28;20037;-70
2022/01/11 02:56:05;;;;;;;39.88;24.13;;;0.80;99.90;;;;;;5040261;28;20033;-69
2022/01/11 02:58:31;;;;;;;39.95;23.88;;;0.80;99.90;;;;;;5043495;28;20522;-69
2022/01/11 03:00:57;;;;;;;45.72;23.63;;;0.70;99.90;;;;;;5037566;28;20111;-69
2022/01/11 03:03:23;;;;;;;38.97;24.00;;;0.70;99.90;;;;;;5036802;28;20060;-69
2022/01/11 03:05:51;;;;;;;46.72;25.13;;;0.70;99.90;;;;;;5043119;28;20037;-69
2022/01/11 03:08:17;;;;;;;55.22;25.25;;;0.70;99.90;;;;;;5039967;28;20032;-69
2022/01/11 03:10:45;;;;;;;39.53;22.30;;;0.70;99.90;;;;;;5040974;28;20671;-70
2022/01/11 03:13:11;;;;;;;35.13;21.60;;;0.70;99.90;;;;;;5035353;28;20021;-68
2022/01/11 03:15:41;;;;;;;43.95;22.23;;;0.70;99.90;;;;;;5044796;28;20033;-68
2022/01/11 03:18:07;;;;;;;34.17;22.00;;;0.70;99.90;;;;;;5032451;28;20636;-68
2022/01/11 03:20:34;;;;;;;36.58;22.23;;;0.70;99.90;;;;;;5043328;28;20029;-68
2022/01/11 03:23:00;;;;;;;43.53;25.73;;;0.70;99.90;;;;;;5043453;28;20091;-69
2022/01/11 03:25:26;;;;;;;47.42;27.02;;;0.70;99.90;;;;;;5046527;28;20500;-68
2022/01/11 03:27:52;;;;;;;48.38;27.52;;;0.70;99.90;;;;;;5039870;28;20119;-68
2022/01/11 03:30:18;;;;;;;49.47;27.05;;;0.80;99.90;;;;;;5041246;28;20040;-68
2022/01/11 03:32:44;;;;;;;43.72;26.02;;;0.80;99.90;;;;;;5039208;28;20044;-69
2022/01/11 03:35:11;;;;;;;41.45;25.98;;;0.80;99.90;;;;;;5037757;28;20025;-69
2022/01/11 03:37:38;;;;;;;38.53;23.90;;;0.80;99.90;;;;;;5043243;28;20037;-68
2022/01/11 03:40:07;;;;;;;39.85;24.50;;;0.80;99.90;;;;;;5040278;28;20037;-69
2022/01/11 03:42:32;;;;;;;37.28;23.45;;;0.80;99.90;;;;;;5038051;28;20029;-68
2022/01/11 03:44:58;;;;;;;39.38;23.80;;;0.80;99.90;;;;;;5040122;28;20018;-69
2022/01/11 03:47:24;;;;;;;34.90;21.85;;;0.90;99.90;;;;;;5036101;28;20185;-69
2022/01/11 03:49:49;;;;;;;36.78;23.50;;;1.00;99.90;;;;;;5044651;28;20053;-69
2022/01/11 03:52:15;;;;;;;33.83;22.13;;;1.00;99.90;;;;;;5041375;28;20024;-69
2022/01/11 03:57:23;;;;;;;33.42;20.70;;;1.00;99.90;;;;;;5043730;28;20123;-69
2022/01/11 03:59:48;;;;;;;37.08;21.45;;;1.10;99.90;;;;;;5048828;28;20116;-69
2022/01/11 04:02:14;;;;;;;34.40;20.98;;;1.10;99.90;;;;;;5034797;28;20610;-69
2022/01/11 04:04:40;;;;;;;34.38;20.83;;;1.10;99.90;;;;;;5048074;28;20520;-69
2022/01/11 04:07:05;;;;;;;36.42;22.23;;;1.10;99.90;;;;;;5038438;28;20348;-69
2022/01/11 04:09:31;;;;;;;38.97;23.50;;;1.00;99.90;;;;;;5042010;28;20096;-69
2022/01/11 04:11:57;;;;;;;41.30;22.70;;;1.10;99.90;;;;;;5034616;28;20021;-68
2022/01/11 04:14:25;;;;;;;37.80;22.67;;;1.10;99.90;;;;;;5039527;28;20501;-69
2022/01/11 04:16:52;;;;;;;43.42;23.75;;;1.10;99.90;;;;;;5041446;28;20045;-70
2022/01/11 04:19:18;;;;;;;39.78;24.40;;;1.10;99.90;;;;;;5047750;28;20121;-68
2022/01/11 04:21:44;;;;;;;46.20;27.17;;;1.10;99.90;;;;;;5041439;28;20029;-69
2022/01/11 04:24:11;;;;;;;41.03;24.05;;;1.10;99.90;;;;;;5044266;28;20025;-69
2022/01/11 04:26:38;;;;;;;43.40;26.02;;;1.00;99.90;;;;;;5047219;28;20049;-69
2022/01/11 04:29:03;;;;;;;50.22;25.73;;;1.10;99.90;;;;;;5046742;28;20064;-69
2022/01/11 04:31:29;;;;;;;47.80;25.38;;;1.10;99.90;;;;;;5033346;28;20053;-69
2022/01/11 04:33:55;;;;;;;42.70;25.75;;;1.00;99.90;;;;;;5044434;28;20167;-69
2022/01/11 04:36:21;;;;;;;44.50;25.35;;;1.00;99.90;;;;;;5049246;28;20108;-69
2022/01/11 04:38:47;;;;;;;47.53;26.33;;;1.00;99.90;;;;;;5043247;28;20410;-69
2022/01/11 04:41:13;;;;;;;45.72;26.27;;;1.00;99.90;;;;;;5044689;28;20032;-69
2022/01/11 04:43:38;;;;;;;46.25;25.48;;;1.00;99.90;;;;;;5042622;28;20029;-69
2022/01/11 04:46:04;;;;;;;51.60;26.85;;;1.10;99.90;;;;;;5042085;28;20025;-69
2022/01/11 04:48:32;;;;;;;47.78;25.70;;;1.10;99.90;;;;;;5040317;28;20397;-69
2022/01/11 04:51:00;;;;;;;41.90;23.50;;;1.20;99.90;;;;;;5043125;28;20616;-69
2022/01/11 04:53:25;;;;;;;48.75;25.45;;;1.20;99.90;;;;;;5048128;28;20771;-69
2022/01/11 04:55:51;;;;;;;47.83;26.13;;;1.20;99.90;;;;;;5047232;28;20055;-69
2022/01/11 04:58:18;;;;;;;48.88;26.38;;;1.20;99.90;;;;;;5040181;28;20025;-69
2022/01/11 05:00:43;;;;;;;56.60;28.33;;;1.30;99.90;;;;;;5042247;28;20021;-69
2022/01/11 05:03:09;;;;;;;50.42;26.38;;;1.30;99.90;;;;;;5040122;28;20025;-68
2022/01/11 05:05:35;;;;;;;52.50;26.80;;;1.40;99.90;;;;;;5046193;28;20029;-69
2022/01/11 05:08:02;;;;;;;47.42;24.15;;;1.50;99.90;;;;;;5046509;28;20767;-69
2022/01/11 05:10:28;;;;;;;44.10;24.33;;;1.50;99.90;;;;;;5048449;28;20055;-69
2022/01/11 05:12:53;;;;;;;50.53;25.25;;;1.50;99.90;;;;;;5040495;28;20504;-69
2022/01/11 05:15:20;;;;;;;45.30;24.33;;;1.50;99.90;;;;;;5043265;28;20029;-69
2022/01/11 05:17:46;;;;;;;44.17;23.50;;;1.50;99.90;;;;;;5041218;28;20035;-69
2022/01/11 05:20:12;;;;;;;43.42;24.92;;;1.50;99.90;;;;;;5040079;28;20371;-69
2022/01/11 05:22:39;;;;;;;51.08;25.88;;;1.50;99.90;;;;;;5035623;28;20041;-69
2022/01/11 05:25:06;;;;;;;55.22;26.73;;;1.50;99.90;;;;;;5046699;28;20025;-69
2022/01/11 05:27:32;;;;;;;55.95;27.55;;;1.50;99.90;;;;;;5036578;28;20048;-69
2022/01/11 05:29:58;;;;;;;50.50;24.52;;;1.50;99.90;;;;;;5041868;28;20025;-69
2022/01/11 05:32:23;;;;;;;50.88;24.83;;;1.50;99.90;;;;;;5042942;28;20010;-69
2022/01/11 05:34:49;;;;;;;54.58;26.13;;;1.50;99.90;;;;;;5036149;28;20020;-69
2022/01/11 05:37:14;;;;;;;61.08;26.35;;;1.50;99.90;;;;;;5029062;28;20079;-69
2022/01/11 05:39:40;;;;;;;54.65;25.27;;;1.50;99.90;;;;;;5040202;28;20056;-69
2022/01/11 05:42:07;;;;;;;73.10;27.23;;;1.50;99.90;;;;;;5031019;28;20103;-69
2022/01/11 05:44:36;;;;;;;60.50;26.60;;;1.50;99.90;;;;;;5047904;28;20033;-69
2022/01/11 05:47:03;;;;;;;53.67;24.45;;;1.60;99.90;;;;;;5038567;28;20165;-71
2022/01/11 05:49:29;;;;;;;53.63;26.20;;;1.60;99.90;;;;;;5043457;28;20540;-69
2022/01/11 05:51:55;;;;;;;69.10;32.42;;;1.60;99.90;;;;;;5036234;28;20029;-69
2022/01/11 05:54:20;;;;;;;66.95;30.65;;;1.60;99.90;;;;;;5048272;28;20025;-69
2022/01/11 05:56:46;;;;;;;56.58;29.67;;;1.60;99.90;;;;;;5040612;28;20025;-69
2022/01/11 05:59:12;;;;;;;57.22;29.30;;;1.60;99.90;;;;;;5035790;28;20036;-69
2022/01/11 06:01:37;;;;;;;52.15;28.40;;;1.50;99.90;;;;;;5038117;28;20025;-69
2022/01/11 06:04:03;;;;;;;59.58;29.27;;;;;;;;;;5041759;28;20028;-69
2022/01/11 06:06:29;;;;;;;54.47;27.65;;;;;;;;;;5040094;28;20130;-69
2022/01/11 06:08:55;;;;;;;61.22;32.58;;;;;;;;;;5038105;28;20474;-69
2022/01/11 06:11:21;;;;;;;63.88;34.08;;;;;;;;;;5027120;28;20749;-69
2022/01/11 06:13:50;;;;;;;50.58;28.50;;;;;;;;;;5037190;28;20099;-70
2022/01/11 06:16:17;;;;;;;48.13;27.88;;;;;;;;;;5032252;28;20048;-69
2022/01/11 06:18:45;;;;;;;56.40;28.20;;;;;;;;;;5043695;28;20039;-69
2022/01/11 06:21:11;;;;;;;50.95;28.08;;;;;;;;;;5042927;28;20040;-69
2022/01/11 06:23:37;;;;;;;49.47;28.50;;;;;;;;;;5044637;28;20409;-69
2022/01/11 06:26:03;;;;;;;48.30;27.75;;;;;;;;;;5040907;28;20053;-69
2022/01/11 06:28:29;;;;;;;50.90;26.88;;;;;;;;;;5042251;28;20071;-69
2022/01/11 06:30:56;;;;;;;50.05;26.13;;;;;;;;;;5045267;28;20029;-69
2022/01/11 06:33:22;;;;;;;48.78;24.38;;;;;;;;;;5039980;28;20059;-69
2022/01/11 06:35:48;;;;;;;40.17;22.35;;;;;;;;;;5040483;28;20614;-69
2022/01/11 06:38:15;;;;;;;51.15;26.85;;;;;;;;;;5045288;28;20048;-69
2022/01/11 06:40:41;;;;;;;48.60;27.30;;;1.70;99.90;;;;;;5042605;28;20080;-70
2022/01/11 06:43:07;;;;;;;46.80;27.35;;;1.60;99.90;;;;;;5037890;28;20032;-69
2022/01/11 06:45:34;;;;;;;41.70;24.15;;;1.50;99.90;;;;;;5032479;28;20044;-70
2022/01/11 06:48:00;;;;;;;45.47;26.75;;;1.50;99.90;;;;;;4683691;28;10000527;-69
2022/01/11 06:50:26;;;;;;;47.28;26.92;;;1.40;99.90;;;;;;5032335;28;20060;-69
2022/01/11 06:52:52;;;;;;;44.50;26.33;;;1.40;99.90;;;;;;5028959;28;20037;-69
2022/01/11 06:55:33;;;;;;;47.58;26.58;;;1.40;99.90;;;;;;5033821;28;20459;-70
2022/01/11 06:57:59;;;;;;;45.15;26.60;;;1.40;99.90;;;;;;5034832;28;20036;-71
2022/01/11 07:00:24;;;;;;;48.05;27.17;;;1.40;99.90;;;;;;5029615;28;20055;-71
2022/01/11 07:02:50;;;;;;;42.45;25.25;;;1.50;99.90;;;;;;5026403;28;20037;-70
2022/01/11 07:05:17;;;;;;;44.40;26.90;;;1.50;99.90;;;;;;5028431;28;20490;-71
2022/01/11 07:07:43;;;;;;;41.55;24.98;;;1.50;99.90;;;;;;5039245;28;20041;-71
2022/01/11 07:10:10;;;;;;;45.22;26.23;;;1.40;99.90;;;;;;5040928;28;20420;-70
2022/01/11 07:12:35;;;;;;;47.90;28.05;;;1.40;99.90;;;;;;5036708;28;20033;-71
2022/01/11 07:15:01;;;;;;;46.15;26.52;;;1.40;99.90;;;;;;5037240;28;20620;-71
2022/01/11 07:17:27;;;;;;;48.53;28.15;;;1.40;99.90;;;;;;5038297;28;20036;-71
2022/01/11 07:19:53;;;;;;;50.35;27.75;;;1.40;99.90;;;;;;5038329;28;20029;-71
2022/01/11 07:22:18;;;;;;;48.40;27.63;;;1.40;99.90;;;;;;5041386;28;20105;-71
2022/01/11 07:24:44;;;;;;;45.08;26.35;;;1.40;99.90;;;;;;5027819;28;20045;-71
2022/01/11 07:27:10;;;;;;;48.20;27.05;;;1.40;99.90;;;;;;5045665;28;20057;-71
2022/01/11 07:29:36;;;;;;;46.83;27.75;;;1.40;99.90;;;;;;5041612;28;20087;-71
2022/01/11 07:32:01;;;;;;;47.42;27.10;;;1.40;99.90;;;;;;5041492;28;20021;-71
2022/01/11 07:34:27;;;;;;;46.97;27.73;;;1.40;99.90;;;;;;5042832;28;20025;-71
2022/01/11 07:36:53;;;;;;;45.90;26.58;;;1.50;99.90;;;;;;5039545;28;20037;-71
2022/01/11 07:39:19;;;;;;;51.05;27.85;;;1.50;99.90;;;;;;5028107;28;20061;-71
2022/01/11 07:41:44;;;;;;;46.83;27.63;;;1.50;99.90;;;;;;5039171;28;20036;-71
2022/01/11 07:44:10;;;;;;;48.13;27.65;;;1.40;99.90;;;;;;5043849;28;20444;-71
2022/01/11 07:46:38;;;;;;;50.25;28.35;;;1.50;99.90;;;;;;5044350;28;20060;-71
2022/01/11 07:49:05;;;;;;;47.40;27.63;;;1.40;99.90;;;;;;5046623;28;20378;-71
2022/01/11 07:51:31;;;;;;;43.50;26.17;;;;;;;;;;5036521;28;20036;-71
2022/01/11 07:53:57;;;;;;;48.65;27.38;;;;;;;;;;5038322;28;20043;-71
2022/01/11 07:56:23;;;;;;;43.85;27.55;;;;;;;;;;5038826;28;20044;-71
2022/01/11 07:58:49;;;;;;;49.40;26.88;;;;;;;;;;5041501;28;20155;-71
2022/01/11 08:01:16;;;;;;;48.95;26.98;;;;;;;;;;5036395;28;20029;-71
2022/01/11 08:03:41;;;;;;;45.80;27.90;;;;;;;;;;5042482;28;20040;-71
2022/01/11 08:06:08;;;;;;;47.40;28.85;;;;;;;;;;5043555;28;20041;-71
2022/01/11 08:08:34;;;;;;;55.25;28.17;;;;;;;;;;5041786;28;20040;-71
2022/01/11 08:11:00;;;;;;;42.78;26.45;;;;;;;;;;5037847;28;20063;-71
2022/01/11 08:13:27;;;;;;;73.38;26.38;;;;;;;;;;5027746;28;20029;-70
2022/01/11 08:15:53;;;;;;;41.40;24.98;;;;;;;;;;5038412;28;20057;-71
2022/01/11 08:18:19;;;;;;;39.65;24.63;;;;;;;;;;5040247;28;20025;-71
2022/01/11 08:20:45;;;;;;;42.33;26.08;;;;;;;;;;5037435;28;20029;-71
2022/01/11 08:23:11;;;;;;;42.20;26.52;;;;;;;;;;5041186;28;20025;-71
2022/01/11 08:25:38;;;;;;;45.20;26.52;;;;;;;;;;5033062;28;20040;-71
2022/01/11 08:28:04;;;;;;;42.65;26.40;;;;;;;;;;5042768;28;20033;-71
2022/01/11 08:30:30;;;;;;;42.08;25.83;;;;;;;;;;5041085;28;20032;-71
2022/01/11 08:32:56;;;;;;;44.45;25.38;;;;;;;;;;5045927;28;20500;-70
2022/01/11 08:35:24;;;;;;;38.45;24.15;;;;;;;;;;5045409;28;20029;-71
2022/01/11 08:37:50;;;;;;;36.78;23.27;;;;;;;;;;5045592;28;20400;-72
2022/01/11 08:40:16;;;;;;;42.10;24.83;;;;;;;;;;5049721;28;20029;-71
2022/01/11 08:42:42;;;;;;;37.20;24.08;;;;;;;;;;5040353;28;20119;-71
2022/01/11 08:45:09;;;;;;;41.70;23.25;;;;;;;;;;5044961;28;20036;-71
2022/01/11 08:47:35;;;;;;;35.33;23.05;;;;;;;;;;5042229;28;20511;-71
2022/01/11 08:50:02;;;;;;;56.00;24.67;;;;;;;;;;5033408;28;20102;-71
2022/01/11 08:52:29;;;;;;;60.25;23.98;;;;;;;;;;5044407;28;20017;-71
2022/01/11 08:54:55;;;;;;;38.05;23.80;;;;;;;;;;5048771;28;20033;-71
2022/01/11 08:57:21;;;;;;;40.38;24.00;;;;;;;;;;5046729;28;20028;-72
2022/01/11 08:59:48;;;;;;;35.60;23.20;;;;;;;;;;5031438;28;20037;-72
2022/01/11 09:02:15;;;;;;;40.17;23.35;;;;;;;;;;5033675;28;20049;-71
2022/01/11 09:04:41;;;;;;;36.45;23.83;;;;;;;;;;5040982;28;20119;-71
2022/01/11 09:07:07;;;;;;;36.65;23.23;;;;;;;;;;5047202;28;20481;-71
2022/01/11 09:09:33;;;;;;;36.38;24.00;;;;;;;;;;5049000;28;20028;-71
2022/01/11 09:12:03;;;;;;;41.38;26.08;;;;;;;;;;5044179;28;20024;-71
2022/01/11 09:14:29;;;;;;;40.13;24.50;;;;;;;;;;5037056;28;20040;-72
2022/01/11 09:16:56;;;;;;;43.03;26.52;;;;;;;;;;5029982;28;20465;-71
2022/01/11 09:19:22;;;;;;;38.92;24.70;;;;;;;;;;5037686;28;20056;-72
2022/01/11 09:21:48;;;;;;;49.42;24.25;;;;;;;;;;5037791;28;20056;-72
2022/01/11 09:24:19;;;;;;;39.35;24.23;;;;;;;;;;5048855;28;20032;-71
2022/01/11 09:26:45;;;;;;;38.95;24.23;;;;;;;;;;5047793;28;20715;-71
2022/01/11 09:29:11;;;;;;;47.17;26.65;;;;;;;;;;5041742;28;20132;-73
2022/01/11 09:31:37;;;;;;;43.63;26.23;;;;;;;;;;5042625;28;20120;-73
2022/01/11 09:34:03;;;;;;;47.15;27.23;;;;;;;;;;5034473;28;20036;-72
2022/01/11 09:36:30;;;;;;;42.33;26.63;;;;;;;;;;5048127;28;20037;-72
2022/01/11 09:38:56;;;;;;;39.53;24.92;;;;;;;;;;5047441;28;20068;-72
2022/01/11 09:41:22;;;;;;;38.10;23.48;;;;;;;;;;5041017;28;20118;-72
2022/01/11 09:43:48;;;;;;;50.05;22.77;;;;;;;;;;5030282;28;20061;-72
2022/01/11 09:46:14;;;;;;;35.75;22.70;;;;;;;;;;5037575;28;20117;-72
2022/01/11 09:48:42;;;;;;;36.67;22.40;;;;;;;;;;5044782;28;20037;-73
2022/01/11 09:51:09;;;;;;;35.53;22.65;;;;;;;;;;5041493;28;20660;-72
2022/01/11 09:53:35;;;;;;;39.15;24.75;;;;;;;;;;5045460;28;20029;-72
2022/01/11 09:56:04;;;;;;;37.55;24.10;;;;;;;;;;5045383;28;20039;-73
2022/01/11 09:58:31;;;;;;;44.90;24.30;;;;;;;;;;5048746;28;20019;-72
2022/01/11 10:00:57;;;;;;;48.65;23.83;;;;;;;;;;5033079;28;20033;-71
2022/01/11 10:03:23;;;;;;;40.80;23.85;;;;;;;;;;5041899;28;20021;-72
2022/01/11 10:05:49;;;;;;;42.78;25.05;;;;;;;;;;5039567;28;20153;-72
2022/01/11 10:08:25;;;;;;;49.97;25.70;;;;;;;;;;5042433;28;20090;-73
2022/01/11 10:10:52;;;;;;;38.20;24.08;;;;;;;;;;5043067;28;20538;-73
2022/01/11 10:13:29;;;;;;;51.72;23.27;;;;;;;;;;5031907;28;20045;-72
2022/01/11 10:15:55;;;;;;;38.58;24.65;;;;;;;;;;5034588;28;20120;-72
2022/01/11 10:18:36;;;;;;;39.60;24.48;;;;;;;;;;5028149;28;20104;-72
2022/01/11 10:21:22;;;;;;;43.63;25.92;;;;;;;;;;5036742;28;20024;-72
2022/01/11 10:23:48;;;;;;;38.35;23.55;;;;;;;;;;5036918;28;20067;-73
2022/01/11 10:26:14;;;;;;;41.22;24.98;;;;;;;;;;5044596;28;20049;-71
2022/01/11 10:28:40;;;;;;;43.28;25.67;;;;;;;;;;5041854;28;20029;-72
2022/01/11 10:31:06;;;;;;;41.97;25.95;;;;;;;;;;5032493;28;20480;-73
2022/01/11 10:33:32;;;;;;;47.65;29.15;;;;;;;;;;5029079;28;20033;-73
2022/01/11 10:35:58;;;;;;;50.15;28.15;;;;;;;;;;5039257;28;20464;-73
2022/01/11 10:38:26;;;;;;;67.32;25.52;;;;;;;;;;5038662;28;20025;-71
2022/01/11 10:40:52;;;;;;;59.40;25.73;;;;;;;;;;5035739;28;20036;-72
2022/01/11 10:43:20;;;;;;;43.33;25.83;;;;;;;;;;5033746;28;20031;-73
2022/01/11 10:45:48;;;;;;;43.85;24.38;;;;;;;;;;5037560;28;20167;-73
2022/01/11 10:48:21;;;;;;;45.63;24.77;;;;;;;;;;5036677;28;20047;-73
2022/01/11 10:50:51;;;;;;;52.90;24.20;;;;;;;;;;5036366;28;20040;-72
2022/01/11 10:53:18;;;;;;;43.67;24.92;;;;;;;;;;5036026;28;20052;-72
2022/01/11 10:55:47;;;;;;;45.53;25.00;;;;;;;;;;5041708;28;20032;-71
2022/01/11 10:58:13;;;;;;;41.20;24.58;;;;;;;;;;5037779;28;20035;-72
2022/01/11 11:00:39;;;;;;;36.67;23.05;;;;;;;;;;5043935;28;20029;-72
2022/01/11 11:03:13;;;;;;;69.72;23.77;;;;;;;;;;5040585;28;20029;-72
2022/01/11 11:05:41;;;;;;;51.80;22.65;;;;;;;;;;5041629;28;20044;-71
2022/01/11 11:08:13;;;;;;;37.33;22.95;;;;;;;;;;5043839;28;20082;-72
2022/01/11 11:10:49;;;;;;;36.60;22.00;;;;;;;;;;5038597;28;20037;-72
2022/01/11 11:13:20;;;;;;;39.95;20.30;;;;;;;;;;5044295;28;20190;-71
2022/01/11 11:15:47;;;;;;;41.58;21.17;;;;;;;;;;5035402;28;20028;-71
2022/01/11 11:18:23;;;;;;;43.15;21.67;;;;;;;;;;5037409;28;20037;-71
2022/01/11 11:20:49;;;;;;;35.90;21.75;;;;;;;;;;5038849;28;20098;-71
2022/01/11 11:23:17;;;;;;;29.60;19.38;;;;;;;;;;5036179;28;20473;-71
2022/01/11 11:25:43;;;;;;;51.80;19.20;;;;;;;;;;5030679;28;20170;-70
2022/01/11 11:28:09;;;;;;;32.97;19.08;;;;;;;;;;5040898;28;20032;-70
2022/01/11 11:30:35;;;;;;;29.67;18.58;;;;;;;;;;5034256;28;20072;-70
2022/01/11 11:33:01;;;;;;;31.08;20.13;;;;;;;;;;5043653;28;20489;-71
2022/01/11 11:35:28;;;;;;;35.22;18.48;;;;;;;;;;5042036;28;20095;-70
2022/01/11 11:37:57;;;;;;;34.92;18.85;;;;;;;;;;5036066;28;20040;-68
2022/01/11 11:40:24;;;;;;;35.55;19.25;;;;;;;;;;5032038;28;20059;-70
2022/01/11 11:42:55;;;;;;;28.33;18.38;;;;;;;;;;5042284;28;20033;-69
2022/01/11 11:45:23;;;;;;;60.83;17.75;;;;;;;;;;5039067;28;20089;-69
2022/01/11 11:47:49;;;;;;;29.60;17.63;;;;;;;;;;5035724;28;20065;-69
2022/01/11 11:50:17;;;;;;;28.08;18.88;;;;;;;;;;5038783;28;20025;-70
2022/01/11 11:52:45;;;;;;;43.03;18.30;;;;;;;;;;5039829;28;20033;-69
2022/01/11 11:55:11;;;;;;;35.40;19.58;;;;;;;;;;5042379;28;20504;-68
2022/01/11 11:57:40;;;;;;;36.88;19.50;;;;;;;;;;5038819;28;20251;-69
2022/01/11 12:00:11;;;;;;;37.92;20.20;;;;;;;;;;5037864;28;20029;-69
2022/01/11 12:02:38;;;;;;;38.45;20.98;;;;;;;;;;5040024;28;20173;-69
2022/01/11 12:05:05;;;;;;;33.90;20.25;;;;;;;;;;5043949;28;20028;-68
2022/01/11 12:07:34;;;;;;;38.53;22.17;;;;;;;;;;5032842;28;20025;-69
2022/01/11 12:10:00;;;;;;;36.03;22.45;;;3.50;99.90;;;;;;5034161;28;20049;-69
2022/01/11 12:12:44;;;;;;;36.70;21.83;;;3.50;99.90;;;;;;5049650;28;20025;-68
2022/01/11 12:15:39;;;;;;;34.75;21.67;;;3.60;99.90;;;;;;5039168;28;20728;-69
2022/01/11 12:18:04;;;;;;;37.85;22.77;;;3.60;99.90;;;;;;5028778;28;20084;-68
2022/01/11 12:20:45;;;;;;;41.00;23.10;;;3.70;99.90;;;;;;5044157;28;20065;-69
2022/01/11 12:23:20;;;;;;;32.28;20.02;;;3.70;99.90;;;;;;5043205;28;20422;-69
2022/01/11 12:25:49;;;;;;;39.63;20.90;;;3.70;99.90;;;;;;5046289;28;20107;-69
2022/01/11 12:28:17;;;;;;;37.38;23.52;;;3.70;99.90;;;;;;5045226;28;20492;-68
2022/01/11 12:30:44;;;;;;;37.50;22.48;;;3.70;99.90;;;;;;5044948;28;20028;-68
2022/01/11 12:33:21;;;;;;;37.08;22.15;;;3.70;99.90;;;;;;5040970;28;20048;-69
2022/01/11 12:36:00;;;;;;;39.17;23.77;;;3.70;99.90;;;;;;5040777;28;20140;-69
2022/01/11 12:38:28;;;;;;;41.75;23.13;;;3.70;99.90;;;;;;5038339;28;20033;-69
2022/01/11 12:40:54;;;;;;;43.05;23.90;;;3.70;99.90;;;;;;5042870;28;20033;-69
2022/01/11 12:43:45;;;;;;;40.53;23.70;;;3.70;99.90;;;;;;5040823;28;20044;-69
2022/01/11 12:46:13;;;;;;;39.45;23.45;;;3.70;99.90;;;;;;5045350;28;20033;-69
2022/01/11 12:48:49;;;;;;;42.63;23.42;;;3.70;99.90;;;;;;5048181;28;20401;-69
2022/01/11 12:51:28;;;;;;;38.97;23.48;;;3.60;99.90;;;;;;5033647;28;20090;-69
2022/01/11 12:54:30;;;;;;;42.88;25.60;;;3.60;99.90;;;;;;5032846;28;20063;-69
2022/01/11 12:57:09;;;;;;;50.08;28.05;;;3.50;99.90;;;;;;5037700;28;20476;-68
2022/01/11 12:59:37;;;;;;;52.65;29.98;;;3.50;99.90;;;;;;5033146;28;20071;-69
2022/01/11 13:02:08;;;;;;;54.63;31.60;;;3.50;99.90;;;;;;5035303;28;20128;-68
2022/01/11 13:04:47;;;;;;;51.70;30.65;;;3.50;99.90;;;;;;5043693;28;20127;-69
2022/01/11 13:07:19;;;;;;;55.78;30.35;;;3.50;99.90;;;;;;5030733;28;20071;-69
2022/01/11 13:09:56;;;;;;;47.53;25.93;;;3.60;99.90;;;;;;4338965;28;10021722;-68
2022/01/11 13:12:30;;;;;;;57.15;31.35;;;3.60;99.90;;;;;;5016753;28;20069;-67
2022/01/11 13:15:33;;;;;;;56.83;32.47;;;3.70;99.90;;;;;;5015405;28;20022;-68
2022/01/11 13:18:08;;;;;;;47.45;26.23;;;3.80;99.90;;;;;;5019318;28;20037;-68